Seabourn Spirit — C6FR4 — position and weather

sailwx.info

Track history (hours):
 
Tides and Currents Weather Stations Pressure Air Temp Water Temp Dewpoint Dewpoint Depression Visibility Wind Speed Wind Dir Waves Ship Positions

Seabourn Spirit

Operator: Cunard Seabourn

Last reported at 2018-Feb-18 15:22 UTC. Time now 2018-Feb-22 15:00 UTC.
Position N 09°11' W 079°52'.

Length 133 m; draft 5.6 m.

Type: Ship. MMSI: 311083000.

Date/timePositionNaut miles runAvg speedWind from/ knotsBaromVisibWave heightAir tempDewpointWater temp
2018-Feb-18 15:22N 09°11' W 079°52'3 7.6
2018-Feb-18 14:54N 09°13' W 079°55'3 7.5
2018-Feb-18 14:28N 09°16' W 079°55'1 1.2
2018-Feb-18 14:00N 09°16' W 079°55'0 0.5
2018-Feb-18 13:27N 09°17' W 079°55'0 0.3
2018-Feb-18 12:58N 09°17' W 079°55'1 1.1
2018-Feb-18 12:30N 09°17' W 079°55'2 3.1
2018-Feb-18 12:00N 09°19' W 079°55'3 5.4
2018-Feb-18 11:30N 09°22' W 079°55'1 2.4
2018-Feb-18 10:59N 09°23' W 079°55'0 0.1
2018-Feb-18 10:29N 09°23' W 079°55'0 0.0
2018-Feb-18 09:58N 09°23' W 079°55'0 0.1
2018-Feb-18 09:28N 09°23' W 079°55'0 0.1
2018-Feb-18 08:58N 09°23' W 079°55'0 0.0
2018-Feb-18 08:28N 09°23' W 079°55'0 0.0
2018-Feb-18 07:58N 09°23' W 079°55'0 0.0
2018-Feb-18 07:28N 09°23' W 079°55'0 0.0
2018-Feb-18 06:58N 09°23' W 079°55'0 0.0
2018-Feb-18 06:28N 09°23' W 079°55'0 0.1
2018-Feb-18 05:58N 09°23' W 079°55'0 0.0
2018-Feb-18 05:28N 09°23' W 079°55'0 0.0
2018-Feb-18 04:58N 09°23' W 079°55'0 0.0
2018-Feb-18 04:28N 09°23' W 079°55'0 0.0
2018-Feb-18 03:58N 09°23' W 079°55'0 0.1
2018-Feb-18 03:28N 09°23' W 079°55'0 0.0
2018-Feb-18 02:58N 09°23' W 079°55'0 0.0
2018-Feb-18 02:28N 09°23' W 079°55'0 0.0
2018-Feb-18 01:58N 09°23' W 079°55'0 0.0
2018-Feb-18 01:28N 09°23' W 079°55'0 0.0
2018-Feb-18 00:58N 09°23' W 079°55'0 0.0
2018-Feb-18 00:28N 09°23' W 079°55'0 0.0
2018-Feb-17 23:58N 09°23' W 079°55'1 2.9
2018-Feb-17 23:30N 09°21' W 079°55'0 0.9
2018-Feb-17 22:58N 09°21' W 079°55'0 0.0
2018-Feb-17 22:28N 09°21' W 079°55'0 0.0
2018-Feb-17 21:58N 09°21' W 079°55'0 0.0
2018-Feb-17 21:28N 09°21' W 079°55'0 0.0
2018-Feb-17 20:58N 09°21' W 079°55'0 0.0
2018-Feb-17 20:28N 09°21' W 079°55'0 0.0
2018-Feb-17 19:58N 09°21' W 079°55'0 0.0
2018-Feb-17 19:28N 09°21' W 079°55'0 0.0
2018-Feb-17 18:58N 09°21' W 079°55'0 0.0
2018-Feb-17 18:28N 09°21' W 079°55'0 0.0
2018-Feb-17 17:58N 09°21' W 079°55'0 0.0
2018-Feb-17 17:28N 09°21' W 079°55'0 0.0
2018-Feb-17 16:58N 09°21' W 079°55'0 0.0
2018-Feb-17 16:28N 09°21' W 079°55'0 0.0
2018-Feb-17 15:58N 09°21' W 079°55'0 0.0
2018-Feb-17 15:30N 09°21' W 079°55'0 0.0
2018-Feb-17 15:00N 09°21' W 079°55'0 0.0
2018-Feb-17 14:30N 09°21' W 079°55'0 0.0
2018-Feb-17 14:00N 09°21' W 079°55'0 0.0
2018-Feb-17 13:29N 09°21' W 079°55'0 0.0
2018-Feb-17 12:59N 09°21' W 079°55'0 0.0
2018-Feb-17 12:29N 09°21' W 079°55'0 0.0
2018-Feb-17 11:59N 09°21' W 079°55'0 0.0
2018-Feb-17 11:29N 09°21' W 079°55'0 0.0
2018-Feb-17 10:59N 09°21' W 079°55'0 0.0
2018-Feb-17 10:29N 09°21' W 079°55'0 0.4
2018-Feb-17 10:00N 09°21' W 079°55'3 5.8
2018-Feb-17 09:30N 09°24' W 079°55'3 5.9
2018-Feb-17 08:58N 09°27' W 079°55'2 3.5
2018-Feb-17 08:29N 09°29' W 079°54'2 0.1
2018-Feb-15 21:45N 09°30' W 079°52'2 8.1
2018-Feb-15 21:29N 09°28' W 079°53'4 8.9
2018-Feb-15 20:58N 09°24' W 079°55'3 7.1
2018-Feb-15 20:30N 09°20' W 079°55'4 5.5
2018-Feb-15 19:49N 09°17' W 079°55'0 0.5
2018-Feb-15 19:26N 09°16' W 079°55'0 0.5
2018-Feb-15 19:00N 09°16' W 079°55'0 0.4
2018-Feb-15 18:29N 09°16' W 079°55'2 4.3
2018-Feb-15 18:00N 09°14' W 079°55'  
Track history (hours):
 
Tides and Currents Weather Stations Pressure Air Temp Water Temp Dewpoint Dewpoint Depression Visibility Wind Speed Wind Dir Waves Ship Positions

Seabourn Spirit

Operator: Cunard Seabourn

Last reported at 2018-Feb-18 15:22 UTC. Time now 2018-Feb-22 15:00 UTC.
Position N 09°11' W 079°52'.

Length 133 m; draft 5.6 m.

Type: Ship. MMSI: 311083000.

Date/timePositionNaut miles runAvg speedWind from/ knotsBaromVisibWave heightAir tempDewpointWater temp
2018-Feb-18 15:22N 09°11' W 079°52'3 7.6
2018-Feb-18 14:54N 09°13' W 079°55'3 7.5
2018-Feb-18 14:28N 09°16' W 079°55'1 1.2
2018-Feb-18 14:00N 09°16' W 079°55'0 0.5
2018-Feb-18 13:27N 09°17' W 079°55'0 0.3
2018-Feb-18 12:58N 09°17' W 079°55'1 1.1
2018-Feb-18 12:30N 09°17' W 079°55'2 3.1
2018-Feb-18 12:00N 09°19' W 079°55'3 5.4
2018-Feb-18 11:30N 09°22' W 079°55'1 2.4
2018-Feb-18 10:59N 09°23' W 079°55'0 0.1
2018-Feb-18 10:29N 09°23' W 079°55'0 0.0
2018-Feb-18 09:58N 09°23' W 079°55'0 0.1
2018-Feb-18 09:28N 09°23' W 079°55'0 0.1
2018-Feb-18 08:58N 09°23' W 079°55'0 0.0
2018-Feb-18 08:28N 09°23' W 079°55'0 0.0
2018-Feb-18 07:58N 09°23' W 079°55'0 0.0
2018-Feb-18 07:28N 09°23' W 079°55'0 0.0
2018-Feb-18 06:58N 09°23' W 079°55'0 0.0
2018-Feb-18 06:28N 09°23' W 079°55'0 0.1
2018-Feb-18 05:58N 09°23' W 079°55'0 0.0
2018-Feb-18 05:28N 09°23' W 079°55'0 0.0
2018-Feb-18 04:58N 09°23' W 079°55'0 0.0
2018-Feb-18 04:28N 09°23' W 079°55'0 0.0
2018-Feb-18 03:58N 09°23' W 079°55'0 0.1
2018-Feb-18 03:28N 09°23' W 079°55'0 0.0
2018-Feb-18 02:58N 09°23' W 079°55'0 0.0
2018-Feb-18 02:28N 09°23' W 079°55'0 0.0
2018-Feb-18 01:58N 09°23' W 079°55'0 0.0
2018-Feb-18 01:28N 09°23' W 079°55'0 0.0
2018-Feb-18 00:58N 09°23' W 079°55'0 0.0
2018-Feb-18 00:28N 09°23' W 079°55'0 0.0
2018-Feb-17 23:58N 09°23' W 079°55'1 2.9
2018-Feb-17 23:30N 09°21' W 079°55'0 0.9
2018-Feb-17 22:58N 09°21' W 079°55'0 0.0
2018-Feb-17 22:28N 09°21' W 079°55'0 0.0
2018-Feb-17 21:58N 09°21' W 079°55'0 0.0
2018-Feb-17 21:28N 09°21' W 079°55'0 0.0
2018-Feb-17 20:58N 09°21' W 079°55'0 0.0
2018-Feb-17 20:28N 09°21' W 079°55'0 0.0
2018-Feb-17 19:58N 09°21' W 079°55'0 0.0
2018-Feb-17 19:28N 09°21' W 079°55'0 0.0
2018-Feb-17 18:58N 09°21' W 079°55'0 0.0
2018-Feb-17 18:28N 09°21' W 079°55'0 0.0
2018-Feb-17 17:58N 09°21' W 079°55'0 0.0
2018-Feb-17 17:28N 09°21' W 079°55'0 0.0
2018-Feb-17 16:58N 09°21' W 079°55'0 0.0
2018-Feb-17 16:28N 09°21' W 079°55'0 0.0
2018-Feb-17 15:58N 09°21' W 079°55'0 0.0
2018-Feb-17 15:30N 09°21' W 079°55'0 0.0
2018-Feb-17 15:00N 09°21' W 079°55'0 0.0
2018-Feb-17 14:30N 09°21' W 079°55'0 0.0
2018-Feb-17 14:00N 09°21' W 079°55'0 0.0
2018-Feb-17 13:29N 09°21' W 079°55'0 0.0
2018-Feb-17 12:59N 09°21' W 079°55'0 0.0
2018-Feb-17 12:29N 09°21' W 079°55'0 0.0
2018-Feb-17 11:59N 09°21' W 079°55'0 0.0
2018-Feb-17 11:29N 09°21' W 079°55'0 0.0
2018-Feb-17 10:59N 09°21' W 079°55'0 0.0
2018-Feb-17 10:29N 09°21' W 079°55'0 0.4
2018-Feb-17 10:00N 09°21' W 079°55'3 5.8
2018-Feb-17 09:30N 09°24' W 079°55'3 5.9
2018-Feb-17 08:58N 09°27' W 079°55'2 3.5
2018-Feb-17 08:29N 09°29' W 079°54'2 0.1
2018-Feb-15 21:45N 09°30' W 079°52'2 8.1
2018-Feb-15 21:29N 09°28' W 079°53'4 8.9
2018-Feb-15 20:58N 09°24' W 079°55'3 7.1
2018-Feb-15 20:30N 09°20' W 079°55'4 5.5
2018-Feb-15 19:49N 09°17' W 079°55'0 0.5
2018-Feb-15 19:26N 09°16' W 079°55'0 0.5
2018-Feb-15 19:00N 09°16' W 079°55'0 0.4
2018-Feb-15 18:29N 09°16' W 079°55'2 4.3
2018-Feb-15 18:00N 09°14' W 079°55'  

Dump ship's entire track history